Time;durP1;ratioP1;P1;durP2;ratioP2;P2;SDS_P1;SDS_P2;PMS_P1;PMS_P2;Temp;Humidity;BMP_temperature;BMP_pressure;BME280_temperature;BME280_humidity;BME280_pressure;Samples;Min_cycle;Max_cycle;Signal;HPM_P1;HPM_P2
2022/07/07 00:01:29;;;;;;;14.93;8.48;;;26.30;81.10;;;;;;4936134;28;20883;-78
2022/07/07 00:03:58;;;;;;;10.82;7.93;;;26.30;81.20;;;;;;4941810;28;20945;-78
2022/07/07 00:06:27;;;;;;;13.13;7.70;;;26.30;80.90;;;;;;4938134;28;20199;-77
2022/07/07 00:08:56;;;;;;;10.80;7.35;;;26.40;81.00;;;;;;4930398;28;20203;-76
2022/07/07 00:11:25;;;;;;;12.07;7.40;;;26.30;80.90;;;;;;4935722;28;20205;-76
2022/07/07 00:13:53;;;;;;;8.50;5.63;;;26.30;80.80;;;;;;4941510;28;20202;-77
2022/07/07 00:16:23;;;;;;;11.57;5.57;;;26.20;80.30;;;;;;4933639;28;20569;-77
2022/07/07 00:18:52;;;;;;;9.25;5.38;;;26.30;80.10;;;;;;4943792;28;20194;-78
2022/07/07 00:21:20;;;;;;;5.82;3.80;;;26.30;79.90;;;;;;4935006;28;20199;-79
2022/07/07 00:23:49;;;;;;;5.93;3.63;;;26.20;79.50;;;;;;4941431;28;20229;-79
2022/07/07 00:26:17;;;;;;;6.22;3.60;;;26.30;79.40;;;;;;4932284;28;20191;-77
2022/07/07 00:28:45;;;;;;;6.30;3.15;;;26.20;79.20;;;;;;4936893;28;20194;-78
2022/07/07 00:31:14;;;;;;;4.45;3.10;;;26.20;79.10;;;;;;4939216;28;20293;-78
2022/07/07 00:33:43;;;;;;;5.88;2.97;;;26.20;78.90;;;;;;4934810;28;20258;-78
2022/07/07 00:36:12;;;;;;;6.07;2.60;;;26.20;78.90;;;;;;4935972;28;20203;-77
2022/07/07 00:38:41;;;;;;;5.28;2.38;;;26.20;78.90;;;;;;4944757;28;20198;-78
2022/07/07 00:41:09;;;;;;;3.80;2.53;;;26.20;79.00;;;;;;4937698;28;20213;-77
2022/07/07 00:43:39;;;;;;;4.03;2.47;;;26.10;78.90;;;;;;4940402;28;20676;-79
2022/07/07 00:46:08;;;;;;;6.20;2.40;;;26.10;78.80;;;;;;4943780;28;20186;-78
2022/07/07 00:48:37;;;;;;;5.57;2.72;;;26.10;78.80;;;;;;4940138;28;20195;-78
2022/07/07 00:51:10;;;;;;;4.60;2.17;;;26.10;79.60;;;;;;4943862;28;20210;-77
2022/07/07 00:53:40;;;;;;;3.60;2.30;;;26.10;78.60;;;;;;4941708;28;20195;-77
2022/07/07 00:56:08;;;;;;;4.57;2.30;;;26.10;78.70;;;;;;4940448;28;20199;-76
2022/07/07 00:58:37;;;;;;;4.13;2.03;;;26.10;78.80;;;;;;4934968;28;20531;-76
2022/07/07 01:01:06;;;;;;;3.90;2.22;;;26.10;78.60;;;;;;4939106;28;20203;-76
2022/07/07 01:03:35;;;;;;;4.70;2.00;;;26.00;78.60;;;;;;4942433;28;20234;-77
2022/07/07 01:06:04;;;;;;;3.03;1.90;;;25.90;78.60;;;;;;4943944;28;20198;-79
2022/07/07 01:08:35;;;;;;;4.00;1.80;;;26.00;78.70;;;;;;4940826;28;20190;-77
2022/07/07 01:11:04;;;;;;;4.05;2.38;;;25.90;78.60;;;;;;4932007;28;20655;-78
2022/07/07 01:13:32;;;;;;;3.38;2.05;;;25.90;78.50;;;;;;4938817;28;20198;-77
2022/07/07 01:16:00;;;;;;;7.65;2.35;;;25.90;78.50;;;;;;4941715;28;20634;-76
2022/07/07 01:18:29;;;;;;;4.43;2.05;;;25.90;78.50;;;;;;4942652;28;20214;-77
2022/07/07 01:21:02;;;;;;;4.18;2.28;;;25.90;78.60;;;;;;4942422;28;20954;-77
2022/07/07 01:23:31;;;;;;;4.13;1.70;;;25.90;78.70;;;;;;4934540;28;20190;-77
2022/07/07 01:26:00;;;;;;;5.38;2.28;;;25.80;78.60;;;;;;4940099;28;20191;-77
2022/07/07 01:28:28;;;;;;;3.80;2.28;;;25.90;78.70;;;;;;4938545;28;20221;-76
2022/07/07 01:30:58;;;;;;;3.70;1.90;;;25.80;78.80;;;;;;4938535;28;20565;-76
2022/07/07 01:33:26;;;;;;;3.47;2.47;;;25.80;78.70;;;;;;4934507;28;20196;-77
2022/07/07 01:35:56;;;;;;;3.25;2.00;;;25.80;78.60;;;;;;4937326;28;20261;-77
2022/07/07 01:38:24;;;;;;;2.90;1.67;;;25.80;78.60;;;;;;4943218;28;20672;-77
2022/07/07 01:40:54;;;;;;;3.10;1.63;;;25.70;78.60;;;;;;4935072;28;20203;-76
2022/07/07 01:43:22;;;;;;;3.10;1.77;;;25.70;78.50;;;;;;4940897;28;20201;-77
2022/07/07 01:45:51;;;;;;;3.78;1.95;;;25.70;78.40;;;;;;4939744;28;20314;-78
2022/07/07 01:48:19;;;;;;;2.97;1.55;;;25.70;78.30;;;;;;4944803;28;20205;-78
2022/07/07 01:50:48;;;;;;;3.63;1.85;;;25.70;78.40;;;;;;4942810;28;20210;-79
2022/07/07 01:53:16;;;;;;;2.72;1.67;;;25.70;78.50;;;;;;4949000;28;20201;-77
2022/07/07 01:55:44;;;;;;;2.65;1.60;;;25.60;78.50;;;;;;4939446;28;20199;-78
2022/07/07 01:58:14;;;;;;;7.63;2.30;;;25.60;78.40;;;;;;4941335;28;20186;-77
2022/07/07 02:00:43;;;;;;;3.65;1.80;;;25.60;78.50;;;;;;4938952;28;20211;-77
2022/07/07 02:03:12;;;;;;;5.50;1.95;;;25.60;78.60;;;;;;4923421;28;20233;-78
2022/07/07 02:05:41;;;;;;;6.75;1.40;;;25.50;78.50;;;;;;4942452;28;20277;-75
2022/07/07 02:08:09;;;;;;;2.72;1.67;;;25.50;78.40;;;;;;4938738;28;20419;-76
2022/07/07 02:13:25;;;;;;;2.45;1.60;;;25.50;78.40;;;;;;4942002;28;20221;-78
2022/07/07 02:15:54;;;;;;;2.47;1.50;;;25.40;78.40;;;;;;4941099;28;20783;-77
2022/07/07 02:18:22;;;;;;;1.35;1.10;;;25.40;78.50;;;;;;4947107;28;20195;-76
2022/07/07 02:20:51;;;;;;;4.22;1.48;;;25.40;78.50;;;;;;4945734;28;20209;-77
2022/07/07 02:23:19;;;;;;;2.22;1.20;;;25.40;78.70;;;;;;4947784;28;20201;-78
2022/07/07 02:25:48;;;;;;;1.73;1.05;;;25.40;78.70;;;;;;4946989;28;20230;-76
2022/07/07 02:28:17;;;;;;;3.30;1.20;;;25.40;78.70;;;;;;4936677;28;20622;-77
2022/07/07 02:30:47;;;;;;;5.13;1.40;;;25.30;78.70;;;;;;4938191;28;20193;-78
2022/07/07 02:33:15;;;;;;;2.45;1.45;;;25.30;78.70;;;;;;4936944;28;20194;-78
2022/07/07 02:35:44;;;;;;;3.50;1.30;;;25.30;78.80;;;;;;4940938;28;20187;-77
2022/07/07 02:38:12;;;;;;;2.50;1.40;;;25.30;78.80;;;;;;4946166;28;20195;-76
2022/07/07 02:40:41;;;;;;;2.08;1.20;;;25.20;79.00;;;;;;4945862;28;20194;-77
2022/07/07 02:43:12;;;;;;;1.63;1.02;;;25.20;78.80;;;;;;4945547;28;20206;-78
2022/07/07 02:45:41;;;;;;;1.67;1.17;;;25.30;78.90;;;;;;4943756;28;20211;-77
2022/07/07 02:48:12;;;;;;;2.22;1.17;;;25.20;78.90;;;;;;4937962;28;20669;-78
2022/07/07 02:50:41;;;;;;;1.70;1.20;;;25.20;78.90;;;;;;4948452;28;20728;-77
2022/07/07 02:53:11;;;;;;;1.60;1.20;;;25.10;79.60;;;;;;4939926;28;20194;-77
2022/07/07 02:55:40;;;;;;;3.97;1.45;;;25.10;78.60;;;;;;4942200;28;20195;-78
2022/07/07 02:58:11;;;;;;;3.47;1.10;;;25.20;78.60;;;;;;4934434;28;20205;-76
2022/07/07 03:00:40;;;;;;;3.72;1.10;;;25.20;78.60;;;;;;4941958;28;20195;-76
2022/07/07 03:03:10;;;;;;;1.52;1.08;;;25.20;78.60;;;;;;4938051;28;20230;-77
2022/07/07 03:05:39;;;;;;;3.90;1.27;;;25.10;78.60;;;;;;4942084;28;20210;-78
2022/07/07 03:08:08;;;;;;;4.35;1.42;;;25.10;78.80;;;;;;4932899;28;20696;-78
2022/07/07 03:10:36;;;;;;;1.95;1.20;;;25.10;78.80;;;;;;4938541;28;20806;-77
2022/07/07 03:13:05;;;;;;;3.60;1.42;;;25.10;78.80;;;;;;4944780;28;20654;-78
2022/07/07 03:15:33;;;;;;;2.03;1.33;;;25.10;78.70;;;;;;4945157;28;20198;-77
2022/07/07 03:18:02;;;;;;;1.90;1.13;;;25.00;78.50;;;;;;4939517;28;20199;-76
2022/07/07 03:20:32;;;;;;;1.73;1.25;;;25.00;78.40;;;;;;4935461;28;20191;-77
2022/07/07 03:23:01;;;;;;;1.80;1.00;;;25.00;78.30;;;;;;4940952;28;20363;-76
2022/07/07 03:25:29;;;;;;;1.38;0.95;;;25.00;78.00;;;;;;4944766;28;20218;-76
2022/07/07 03:27:58;;;;;;;5.53;1.17;;;25.00;77.60;;;;;;4940271;28;20207;-76
2022/07/07 03:30:26;;;;;;;2.15;1.30;;;25.00;77.20;;;;;;4940073;28;20730;-76
2022/07/07 03:32:55;;;;;;;1.45;1.02;;;25.00;77.00;;;;;;4937326;28;20293;-76
2022/07/07 03:35:23;;;;;;;1.33;0.85;;;25.00;77.00;;;;;;4934232;28;20284;-76
2022/07/07 03:37:53;;;;;;;1.88;1.20;;;25.00;76.70;;;;;;4936507;28;20600;-77
2022/07/07 03:40:21;;;;;;;2.33;1.20;;;24.90;76.80;;;;;;4941258;28;20805;-77
2022/07/07 03:42:50;;;;;;;2.25;1.63;;;24.90;76.80;;;;;;4937179;28;20253;-77
2022/07/07 03:45:19;;;;;;;2.85;1.02;;;24.80;76.80;;;;;;4942737;28;20250;-78
2022/07/07 03:47:50;;;;;;;3.15;1.02;;;24.80;76.90;;;;;;4940303;28;20254;-77
2022/07/07 03:50:18;;;;;;;3.33;1.08;;;24.80;76.90;;;;;;4931641;28;20198;-77
2022/07/07 03:52:47;;;;;;;4.40;1.20;;;24.80;77.20;;;;;;4942973;28;20705;-77
2022/07/07 03:55:16;;;;;;;3.47;1.55;;;24.80;77.40;;;;;;4938278;28;20190;-78
2022/07/07 03:57:45;;;;;;;5.00;1.27;;;24.70;77.80;;;;;;4939452;28;20206;-78
2022/07/07 04:00:14;;;;;;;2.13;1.13;;;24.70;78.00;;;;;;4942859;28;20198;-77
2022/07/07 04:02:42;;;;;;;2.53;1.27;;;24.70;78.20;;;;;;4943432;28;20958;-78
2022/07/07 04:05:11;;;;;;;5.72;1.50;;;24.60;78.60;;;;;;4936335;28;20246;-78
2022/07/07 04:07:40;;;;;;;4.75;1.30;;;24.60;79.20;;;;;;4945841;28;20198;-78
2022/07/07 04:10:09;;;;;;;1.35;1.23;;;24.50;79.20;;;;;;4940198;28;20208;-78
2022/07/07 04:12:39;;;;;;;4.00;1.25;;;24.50;79.70;;;;;;4939111;28;20199;-78
2022/07/07 04:15:08;;;;;;;3.55;1.40;;;24.40;79.80;;;;;;4941280;28;20194;-79
2022/07/07 04:17:37;;;;;;;5.70;1.50;;;24.40;80.10;;;;;;4946134;28;20301;-78
2022/07/07 04:20:06;;;;;;;3.55;1.67;;;24.40;80.20;;;;;;4943271;28;20194;-78
2022/07/07 04:22:35;;;;;;;4.03;1.35;;;24.30;80.50;;;;;;4943259;28;20203;-77
2022/07/07 04:25:04;;;;;;;2.75;1.52;;;24.30;80.80;;;;;;4941569;28;20253;-78
2022/07/07 04:27:32;;;;;;;2.38;1.70;;;24.20;81.00;;;;;;4946622;28;20662;-77
2022/07/07 04:30:02;;;;;;;2.20;1.50;;;24.20;81.10;;;;;;4950802;28;20195;-76
2022/07/07 04:32:30;;;;;;;3.65;1.80;;;24.20;81.30;;;;;;4946701;28;20198;-76
2022/07/07 04:34:59;;;;;;;2.67;1.42;;;24.20;81.60;;;;;;4937726;28;20233;-76
2022/07/07 04:37:27;;;;;;;4.07;1.75;;;24.20;81.60;;;;;;4937139;28;20868;-76
2022/07/07 04:39:56;;;;;;;2.92;1.60;;;24.10;81.80;;;;;;4947095;28;20253;-77
2022/07/07 04:42:24;;;;;;;2.10;1.40;;;24.10;81.90;;;;;;4936228;28;20199;-76
2022/07/07 04:44:53;;;;;;;3.58;1.70;;;24.10;81.90;;;;;;4931012;28;20870;-77
2022/07/07 04:47:23;;;;;;;2.33;1.33;;;24.10;82.10;;;;;;4937899;28;20257;-76
2022/07/07 04:49:52;;;;;;;3.25;1.65;;;24.00;82.20;;;;;;4935671;28;20203;-77
2022/07/07 04:52:20;;;;;;;3.40;1.92;;;24.00;82.40;;;;;;4939794;28;20198;-77
2022/07/07 04:54:49;;;;;;;6.57;1.90;;;24.00;82.50;;;;;;4937372;28;20199;-76
2022/07/07 04:57:24;;;;;;;4.68;2.00;;;24.00;82.60;;;;;;4942886;28;20242;-76
2022/07/07 04:59:53;;;;;;;4.95;1.67;;;24.00;82.70;;;;;;4940071;28;20195;-76
2022/07/07 05:02:22;;;;;;;3.88;2.00;;;23.90;82.90;;;;;;4952423;28;20194;-75
2022/07/07 05:04:51;;;;;;;4.53;2.05;;;23.90;83.10;;;;;;4944716;28;20238;-76
2022/07/07 05:07:20;;;;;;;4.43;1.67;;;23.90;83.40;;;;;;4943332;28;20226;-75
2022/07/07 05:09:48;;;;;;;3.17;2.15;;;23.90;83.40;;;;;;4950712;28;20198;-76
2022/07/07 05:12:17;;;;;;;5.05;1.98;;;23.80;84.10;;;;;;4944517;28;20189;-76
2022/07/07 05:14:47;;;;;;;4.30;1.80;;;23.80;83.60;;;;;;4945890;28;20219;-76
2022/07/07 05:17:16;;;;;;;4.00;2.13;;;23.70;83.50;;;;;;4930722;28;20202;-76
2022/07/07 05:19:45;;;;;;;3.10;1.70;;;23.70;83.60;;;;;;4932079;28;20230;-77
2022/07/07 05:22:14;;;;;;;5.30;2.17;;;23.70;83.70;;;;;;4948953;28;20190;-76
2022/07/07 05:24:42;;;;;;;5.22;1.90;;;23.70;84.60;;;;;;4947119;28;20188;-76
2022/07/07 05:27:11;;;;;;;3.17;1.90;;;23.60;84.20;;;;;;4941343;28;20229;-76
2022/07/07 05:29:39;;;;;;;4.30;2.03;;;23.60;84.60;;;;;;4937255;28;20203;-77
2022/07/07 05:32:08;;;;;;;2.67;1.92;;;23.60;85.20;;;;;;4939857;28;20600;-77
2022/07/07 05:34:36;;;;;;;5.07;2.13;;;23.50;85.20;;;;;;4942635;28;20202;-76
2022/07/07 05:37:06;;;;;;;3.63;2.13;;;23.40;85.20;;;;;;4939368;28;20206;-77
2022/07/07 05:39:35;;;;;;;4.90;1.83;;;23.40;85.20;;;;;;4945890;29;20202;-76
2022/07/07 05:42:04;;;;;;;5.95;2.35;;;23.40;85.20;;;;;;4940863;28;20668;-76
2022/07/07 05:44:32;;;;;;;4.90;2.35;;;23.40;85.60;;;;;;4937960;28;20199;-78
2022/07/07 05:47:00;;;;;;;5.20;2.85;;;23.30;86.70;;;;;;4941164;28;20221;-76
2022/07/07 05:49:29;;;;;;;5.18;2.67;;;23.20;87.30;;;;;;4955108;28;20662;-76
2022/07/07 05:51:57;;;;;;;7.53;3.20;;;23.20;88.20;;;;;;4937332;28;20199;-75
2022/07/07 05:54:27;;;;;;;4.28;2.75;;;23.10;88.30;;;;;;4947884;28;20195;-77
2022/07/07 05:56:56;;;;;;;5.43;2.58;;;23.00;88.60;;;;;;4938487;28;20210;-75
2022/07/07 05:59:24;;;;;;;3.80;2.20;;;22.90;88.60;;;;;;4946234;28;20760;-75
2022/07/07 06:01:55;;;;;;;6.13;2.47;;;22.90;88.60;;;;;;4943983;28;20194;-76
2022/07/07 06:04:25;;;;;;;13.15;3.65;;;22.90;88.90;;;;;;4931679;28;20219;-76
2022/07/07 06:06:54;;;;;;;6.60;4.03;;;22.80;89.00;;;;;;4937403;28;20214;-76
2022/07/07 06:09:23;;;;;;;8.32;4.05;;;22.70;89.50;;;;;;4941493;28;20291;-75
2022/07/07 06:11:53;;;;;;;9.75;4.75;;;22.60;89.40;;;;;;4943631;28;20199;-75
2022/07/07 06:14:21;;;;;;;9.07;4.80;;;22.60;89.50;;;;;;4944586;28;20224;-76
2022/07/07 06:16:50;;;;;;;11.82;3.58;;;22.60;89.80;;;;;;4930142;28;20213;-77
2022/07/07 06:19:18;;;;;;;9.32;3.20;;;22.50;90.10;;;;;;4939347;28;20237;-76
2022/07/07 06:21:47;;;;;;;8.70;3.05;;;22.50;90.10;;;;;;4937397;28;20285;-77
2022/07/07 06:24:15;;;;;;;8.43;2.67;;;22.40;90.30;;;;;;4940196;28;20202;-76
2022/07/07 06:26:43;;;;;;;5.80;2.53;;;22.40;90.40;;;;;;4932464;28;20218;-76
2022/07/07 06:29:13;;;;;;;3.85;1.98;;;22.40;90.50;;;;;;4944271;29;20213;-76
2022/07/07 06:31:41;;;;;;;9.57;3.10;;;22.40;90.50;;;;;;4939910;28;20269;-75
2022/07/07 06:34:10;;;;;;;5.85;2.38;;;22.30;90.50;;;;;;4945800;28;20197;-76
2022/07/07 06:36:38;;;;;;;8.90;2.25;;;22.30;90.50;;;;;;4929099;28;20199;-75
2022/07/07 06:39:06;;;;;;;4.93;2.22;;;22.30;90.50;;;;;;4949218;28;20207;-76
2022/07/07 06:41:36;;;;;;;6.75;2.88;;;22.30;90.60;;;;;;4933160;28;20202;-75
2022/07/07 06:44:05;;;;;;;12.90;3.42;;;22.30;90.60;;;;;;4944340;28;20252;-75
2022/07/07 06:46:35;;;;;;;9.65;2.63;;;22.30;90.60;;;;;;4933680;28;20314;-73
2022/07/07 06:49:04;;;;;;;9.10;2.92;;;22.20;90.90;;;;;;4938569;28;20226;-74
2022/07/07 06:51:32;;;;;;;5.93;2.75;;;22.20;90.90;;;;;;4934713;28;20222;-76
2022/07/07 06:54:01;;;;;;;4.95;2.13;;;22.20;91.10;;;;;;4934887;28;20210;-76
2022/07/07 06:56:29;;;;;;;5.82;2.20;;;22.10;91.20;;;;;;4942186;28;20259;-76
2022/07/07 06:58:57;;;;;;;5.90;2.70;;;22.10;91.10;;;;;;4942866;28;20217;-76
2022/07/07 07:01:26;;;;;;;3.50;2.20;;;22.10;91.20;;;;;;4941025;28;21044;-76
2022/07/07 07:03:56;;;;;;;4.88;2.13;;;22.10;91.20;;;;;;4933835;28;20965;-76
2022/07/07 07:06:25;;;;;;;7.68;2.17;;;22.10;91.20;;;;;;4949808;28;20245;-76
2022/07/07 07:08:53;;;;;;;3.72;2.03;;;22.00;91.20;;;;;;4947051;28;20195;-76
2022/07/07 07:11:22;;;;;;;4.82;1.83;;;22.00;91.20;;;;;;4940644;28;20195;-76
2022/07/07 07:13:50;;;;;;;6.30;2.25;;;22.00;91.20;;;;;;4939319;28;20210;-76
2022/07/07 07:16:19;;;;;;;2.53;1.58;;;22.00;91.20;;;;;;4950076;28;20189;-77
2022/07/07 07:18:48;;;;;;;3.08;1.83;;;22.00;91.20;;;;;;4938451;28;20210;-75
2022/07/07 07:21:17;;;;;;;3.28;1.90;;;22.00;91.10;;;;;;4940403;28;20206;-77
2022/07/07 07:23:46;;;;;;;3.47;2.00;;;22.00;91.10;;;;;;4938989;28;20657;-75
2022/07/07 07:26:14;;;;;;;3.33;1.92;;;22.10;91.20;;;;;;4946031;28;20205;-76
2022/07/07 07:28:43;;;;;;;4.40;2.10;;;22.10;91.20;;;;;;4939735;28;21134;-75
2022/07/07 07:31:11;;;;;;;3.80;1.95;;;22.10;91.50;;;;;;4938263;28;20191;-77
2022/07/07 07:33:40;;;;;;;4.13;1.85;;;22.10;91.40;;;;;;4941201;28;20640;-76
2022/07/07 07:36:09;;;;;;;4.97;3.00;;;22.20;91.30;;;;;;4934263;28;21617;-76
2022/07/07 07:38:40;;;;;;;9.48;3.90;;;22.20;91.20;;;;;;4943686;28;20195;-76
2022/07/07 07:41:10;;;;;;;4.53;2.13;;;22.20;91.20;;;;;;4944361;29;20199;-76
2022/07/07 07:43:39;;;;;;;6.72;6.00;;;22.30;91.20;;;;;;4942642;29;20205;-76
2022/07/07 07:46:09;;;;;;;4.50;2.55;;;22.30;91.20;;;;;;4944241;28;20585;-75
2022/07/07 07:48:37;;;;;;;5.43;2.45;;;22.30;91.20;;;;;;4937009;28;20255;-75
2022/07/07 07:51:06;;;;;;;4.72;1.90;;;22.40;91.20;;;;;;4941944;28;20726;-75
2022/07/07 07:53:34;;;;;;;4.30;1.90;;;22.40;91.10;;;;;;4946695;29;20205;-75
2022/07/07 07:56:05;;;;;;;4.95;2.00;;;22.40;91.00;;;;;;4942604;28;20209;-75
2022/07/07 07:58:33;;;;;;;3.97;2.15;;;22.50;90.90;;;;;;4939772;28;20846;-76
2022/07/07 08:01:01;;;;;;;3.80;2.10;;;22.60;90.90;;;;;;4933323;28;20190;-75
2022/07/07 08:03:30;;;;;;;4.43;2.10;;;22.50;90.90;;;;;;4940605;28;20255;-75
2022/07/07 08:06:00;;;;;;;6.10;2.25;;;22.60;90.90;;;;;;4941627;29;20214;-75
2022/07/07 08:08:28;;;;;;;5.03;2.25;;;22.60;90.80;;;;;;4941362;28;20218;-76
2022/07/07 08:10:56;;;;;;;4.45;2.40;;;22.60;90.70;;;;;;4942900;28;20214;-76
2022/07/07 08:13:26;;;;;;;5.25;2.67;;;22.60;90.70;;;;;;4941427;28;20853;-75
2022/07/07 08:15:55;;;;;;;3.90;2.72;;;22.70;90.80;;;;;;4940740;28;20195;-76
2022/07/07 08:18:26;;;;;;;3.50;2.38;;;22.70;90.70;;;;;;4946264;29;20198;-78
2022/07/07 08:20:55;;;;;;;3.85;2.25;;;22.70;90.70;;;;;;4942162;28;20187;-76
2022/07/07 08:23:24;;;;;;;4.47;2.03;;;22.70;90.50;;;;;;4942208;28;20198;-78
2022/07/07 08:25:52;;;;;;;4.43;2.70;;;22.70;90.50;;;;;;4941252;28;20246;-78
2022/07/07 08:28:21;;;;;;;5.05;2.58;;;22.70;90.50;;;;;;4941218;28;20218;-79
2022/07/07 08:30:50;;;;;;;2.90;2.10;;;22.70;90.50;;;;;;4945810;28;20198;-79
2022/07/07 08:33:19;;;;;;;4.75;2.30;;;22.80;90.40;;;;;;4945866;28;20560;-79
2022/07/07 08:35:47;;;;;;;3.03;1.88;;;22.80;90.50;;;;;;4940558;28;20190;-78
2022/07/07 08:38:15;;;;;;;6.10;2.03;;;22.80;90.60;;;;;;4936220;28;20198;-77
2022/07/07 08:40:44;;;;;;;4.93;2.42;;;22.80;90.50;;;;;;4939488;28;20596;-78
2022/07/07 08:43:14;;;;;;;10.82;2.60;;;22.90;90.60;;;;;;4943372;28;20240;-78
2022/07/07 08:45:42;;;;;;;3.90;2.40;;;22.90;90.70;;;;;;4943706;28;20198;-78
2022/07/07 08:48:12;;;;;;;3.53;2.22;;;22.90;90.70;;;;;;4936673;28;20223;-78
2022/07/07 08:50:40;;;;;;;4.75;2.03;;;22.90;90.70;;;;;;4945529;28;20202;-77
2022/07/07 08:53:12;;;;;;;5.43;1.80;;;22.90;90.70;;;;;;4934625;28;20586;-77
2022/07/07 08:55:42;;;;;;;5.15;2.20;;;22.90;90.60;;;;;;4950132;28;20197;-77
2022/07/07 08:58:11;;;;;;;3.00;1.98;;;22.90;90.70;;;;;;4944146;28;20199;-76
2022/07/07 09:00:39;;;;;;;6.10;2.35;;;23.00;90.60;;;;;;4939201;28;20205;-76
2022/07/07 09:03:08;;;;;;;3.42;2.20;;;23.00;90.60;;;;;;4938586;28;20229;-76
2022/07/07 09:05:38;;;;;;;3.28;2.00;;;23.10;90.50;;;;;;4939353;28;20288;-76
2022/07/07 09:08:18;;;;;;;3.28;1.90;;;23.10;90.70;;;;;;4943823;28;20222;-76
2022/07/07 09:10:47;;;;;;;3.63;2.47;;;23.20;90.10;;;;;;4941287;28;20194;-77
2022/07/07 09:13:26;;;;;;;3.88;2.33;;;23.30;90.00;;;;;;4943744;28;20234;-76
2022/07/07 09:15:57;;;;;;;4.20;3.00;;;23.40;89.90;;;;;;4944119;29;20425;-76
2022/07/07 09:18:33;;;;;;;3.95;2.22;;;23.50;90.00;;;;;;4944700;28;20201;-76
2022/07/07 09:21:05;;;;;;;5.65;2.47;;;23.60;89.60;;;;;;4941958;28;20240;-77
2022/07/07 09:23:35;;;;;;;6.07;2.50;;;23.60;89.20;;;;;;4939718;28;20207;-77
2022/07/07 09:26:03;;;;;;;3.72;2.70;;;23.70;88.90;;;;;;4941934;28;20198;-76
2022/07/07 09:28:31;;;;;;;3.85;2.55;;;23.70;88.60;;;;;;4943252;28;20226;-77
2022/07/07 09:31:02;;;;;;;6.63;2.95;;;23.70;88.70;;;;;;4939348;28;20610;-78
2022/07/07 09:33:31;;;;;;;4.60;2.55;;;23.70;88.60;;;;;;4932413;28;20268;-77
2022/07/07 09:38:47;;;;;;;4.57;2.50;;;23.80;88.60;;;;;;4936243;28;20190;-76
2022/07/07 09:41:17;;;;;;;5.05;3.10;;;23.90;88.70;;;;;;4938859;28;20205;-77
2022/07/07 09:43:47;;;;;;;6.10;3.05;;;24.00;88.40;;;;;;4940545;28;20305;-78
2022/07/07 09:46:18;;;;;;;5.47;3.35;;;24.00;88.00;;;;;;4929901;28;20214;-79
2022/07/07 09:48:49;;;;;;;4.53;3.05;;;24.10;87.80;;;;;;4928626;28;20210;-77
2022/07/07 09:51:22;;;;;;;4.80;2.95;;;24.20;87.60;;;;;;4940078;28;20205;-78
2022/07/07 09:54:06;;;;;;;8.30;2.78;;;24.20;87.70;;;;;;4932949;28;20690;-77
2022/07/07 09:56:36;;;;;;;6.63;3.33;;;24.30;87.70;;;;;;4937320;28;20202;-77
2022/07/07 09:59:06;;;;;;;5.43;2.95;;;24.40;87.60;;;;;;4939580;28;20714;-77
2022/07/07 10:01:36;;;;;;;5.50;2.78;;;24.50;87.20;;;;;;4942064;28;20940;-79
2022/07/07 10:04:07;;;;;;;4.40;2.85;;;24.60;86.90;;;;;;4940775;28;20683;-79
2022/07/07 10:06:38;;;;;;;4.80;2.63;;;24.60;86.50;;;;;;4938087;28;20191;-85
2022/07/07 10:09:10;;;;;;;6.40;2.45;;;24.80;86.80;;;;;;4941725;28;20305;-79
2022/07/07 10:11:40;;;;;;;3.83;2.25;;;24.80;85.40;;;;;;4937949;28;20238;-79
2022/07/07 10:14:14;;;;;;;5.10;2.05;;;24.90;85.00;;;;;;4943294;28;20191;-80
2022/07/07 10:16:44;;;;;;;5.70;2.20;;;25.00;85.40;;;;;;4941287;28;20205;-78
2022/07/07 10:19:18;;;;;;;3.20;2.00;;;25.00;83.90;;;;;;4941804;28;20199;-80
2022/07/07 10:21:48;;;;;;;6.68;2.53;;;25.10;84.10;;;;;;4943814;28;20205;-79
2022/07/07 10:24:20;;;;;;;4.28;2.33;;;25.20;84.00;;;;;;4940362;28;20229;-79
2022/07/07 10:26:50;;;;;;;4.65;2.17;;;25.20;83.60;;;;;;4941857;28;20388;-80
2022/07/07 10:29:29;;;;;;;4.43;2.50;;;25.20;83.30;;;;;;4944777;28;20675;-80
2022/07/07 10:31:58;;;;;;;3.70;2.20;;;25.20;83.50;;;;;;4936274;28;20409;-80
2022/07/07 10:34:33;;;;;;;3.88;2.50;;;25.20;83.60;;;;;;4937223;28;20198;-80
2022/07/07 10:37:04;;;;;;;4.25;2.75;;;25.30;83.70;;;;;;4939999;28;20230;-80
2022/07/07 10:39:41;;;;;;;4.68;2.80;;;25.40;83.60;;;;;;4948988;28;20916;-80
2022/07/07 10:42:39;;;;;;;4.10;2.65;;;25.40;83.20;;;;;;4945646;28;20257;-80
2022/07/07 10:45:10;;;;;;;5.38;2.80;;;25.50;83.10;;;;;;4940976;28;20696;-81
2022/07/07 10:47:39;;;;;;;4.43;3.10;;;25.50;83.30;;;;;;4945286;28;20195;-81
2022/07/07 10:50:24;;;;;;;3.40;2.60;;;25.50;83.00;;;;;;4940809;28;20209;-79
2022/07/07 10:52:53;;;;;;;5.90;2.92;;;25.60;82.70;;;;;;4937463;28;20195;-80
2022/07/07 10:55:58;;;;;;;8.57;3.83;;;25.60;82.50;;;;;;4942753;28;20620;-78
2022/07/07 10:58:56;;;;;;;7.68;3.50;;;25.70;81.80;;;;;;4944936;28;20190;-77
2022/07/07 11:01:27;;;;;;;4.95;3.30;;;25.80;81.20;;;;;;4927213;28;20198;-80
2022/07/07 11:03:56;;;;;;;6.18;3.65;;;25.90;82.10;;;;;;4938178;28;20971;-79
2022/07/07 11:06:25;;;;;;;6.72;4.93;;;26.10;81.30;;;;;;4943823;28;20246;-81
2022/07/07 11:09:02;;;;;;;8.65;4.40;;;26.10;81.00;;;;;;4946673;28;20242;-80
2022/07/07 11:11:32;;;;;;;6.05;4.10;;;26.20;80.80;;;;;;4942792;28;20700;-80
2022/07/07 11:14:09;;;;;;;6.30;4.03;;;26.30;80.50;;;;;;4938896;28;20244;-81
2022/07/07 11:16:39;;;;;;;5.97;3.22;;;26.40;80.30;;;;;;4940804;28;20289;-80
2022/07/07 11:19:10;;;;;;;5.03;2.80;;;26.40;80.40;;;;;;4944710;28;20190;-81
2022/07/07 11:21:44;;;;;;;5.32;2.95;;;26.40;80.40;;;;;;4936104;28;20245;-79
2022/07/07 11:24:19;;;;;;;7.90;3.08;;;26.50;80.20;;;;;;4941428;28;20237;-81
2022/07/07 11:27:02;;;;;;;6.25;3.05;;;26.60;80.00;;;;;;4944305;28;20202;-80
2022/07/07 11:29:31;;;;;;;6.15;3.55;;;26.60;79.50;;;;;;4941484;28;20206;-79
2022/07/07 11:32:05;;;;;;;5.20;2.90;;;26.70;79.40;;;;;;4942225;28;20671;-80
2022/07/07 11:34:48;;;;;;;4.45;2.90;;;26.70;79.00;;;;;;4943603;28;20197;-79
2022/07/07 11:37:22;;;;;;;3.97;2.85;;;26.80;78.90;;;;;;4935777;28;20857;-80
2022/07/07 11:39:50;;;;;;;5.63;2.80;;;26.80;78.60;;;;;;4941329;28;20199;-80
2022/07/07 11:42:20;;;;;;;5.90;2.95;;;26.80;78.30;;;;;;4946652;29;20289;-79
2022/07/07 11:44:49;;;;;;;3.05;2.25;;;26.90;78.30;;;;;;4943246;28;20202;-80
2022/07/07 11:47:18;;;;;;;3.90;2.72;;;27.10;78.50;;;;;;4943307;28;20257;-80
2022/07/07 11:49:47;;;;;;;4.13;2.15;;;27.20;78.40;;;;;;4953778;28;20639;-80
2022/07/07 11:52:16;;;;;;;5.25;2.85;;;27.30;78.40;;;;;;4945169;28;20245;-79
2022/07/07 11:54:47;;;;;;;4.88;3.15;;;27.40;78.00;;;;;;4945090;28;20202;-80
2022/07/07 11:57:34;;;;;;;4.45;2.90;;;27.40;77.50;;;;;;4944824;28;20199;-78
2022/07/07 12:00:13;;;;;;;4.38;2.63;;;27.40;76.20;;;;;;4938862;28;20203;-78
2022/07/07 12:02:43;;;;;;;5.15;3.10;;;27.50;76.30;;;;;;4933656;28;20204;-78
2022/07/07 12:05:13;;;;;;;7.80;3.35;;;27.50;76.00;;;;;;4937783;28;20191;-79
2022/07/07 12:07:44;;;;;;;4.53;2.88;;;27.60;76.00;;;;;;4943019;28;20205;-78
2022/07/07 12:10:24;;;;;;;4.60;2.88;;;27.60;75.90;;;;;;4939912;28;20291;-79
2022/07/07 12:12:59;;;;;;;4.53;2.75;;;27.70;76.10;;;;;;4940208;28;20591;-78
2022/07/07 12:15:29;;;;;;;7.03;2.92;;;27.70;75.70;;;;;;4936745;28;20636;-79
2022/07/07 12:17:59;;;;;;;4.15;2.58;;;27.80;75.70;;;;;;4936001;28;20195;-79
2022/07/07 12:20:28;;;;;;;4.10;2.83;;;27.80;75.60;;;;;;4942217;28;20205;-79
2022/07/07 12:23:06;;;;;;;4.40;2.88;;;27.80;75.40;;;;;;4936484;28;20230;-80
2022/07/07 12:25:36;;;;;;;4.07;2.88;;;27.90;75.20;;;;;;4933595;28;20641;-81
2022/07/07 12:28:10;;;;;;;4.05;2.45;;;28.00;75.00;;;;;;4940226;28;20901;-82
2022/07/07 12:30:53;;;;;;;3.88;2.75;;;28.10;75.20;;;;;;4941427;28;20229;-79
2022/07/07 12:33:29;;;;;;;6.00;2.88;;;28.20;75.10;;;;;;4948645;28;20198;-78
2022/07/07 12:36:09;;;;;;;3.78;2.65;;;28.20;74.60;;;;;;4940605;28;20186;-80
2022/07/07 12:38:39;;;;;;;6.20;2.80;;;28.30;74.70;;;;;;4941174;28;20566;-79
2022/07/07 12:41:08;;;;;;;5.20;2.80;;;28.30;74.70;;;;;;4942442;28;20566;-79
2022/07/07 12:43:38;;;;;;;6.47;2.53;;;28.30;74.30;;;;;;4939125;28;20196;-81
2022/07/07 12:46:11;;;;;;;4.13;2.80;;;28.30;74.20;;;;;;4942286;28;20194;-79
2022/07/07 12:48:44;;;;;;;4.75;3.05;;;28.30;74.00;;;;;;4937602;28;20202;-79
2022/07/07 12:51:13;;;;;;;3.55;2.70;;;28.30;73.60;;;;;;4937588;28;20238;-79
2022/07/07 12:53:43;;;;;;;5.85;2.60;;;28.30;73.80;;;;;;4940700;28;20284;-80
2022/07/07 12:56:13;;;;;;;3.25;2.42;;;28.40;73.60;;;;;;4936089;28;20209;-80
2022/07/07 12:58:44;;;;;;;4.03;2.92;;;28.50;73.70;;;;;;4940234;28;20198;-83
2022/07/07 13:01:16;;;;;;;6.22;4.10;;;28.50;73.70;;;;;;4940202;28;20194;-78
2022/07/07 13:03:48;;;;;;;8.00;4.65;;;28.50;73.30;;;;;;4940131;28;20448;-79
2022/07/07 13:06:17;;;;;;;8.13;4.63;;;28.50;73.30;;;;;;4940189;28;20191;-79